Crandall, Texas
Current Conditions -  °F | °C
As of 10:50 AM on Thursday 27 Nov 2014 (Local Time) from KHQZ Reporting Station
Clear Clear  
Wind Chill: 10°   Ceiling: Unl
Heat Index: 10°   Visibility: 10mi
Dew Point: -6°   Wind: 7mph
Humidity: 32%   Direction: 360°N
Pressure: 30.55"   Gusts: NA
Location:  32.63°N, 96.46°W
Report Text: KHQZ 271650Z 36006KT 10SM CLR 10/M06 A3055
Loading
Personal Weather Stations






























Interactive Weather Map New forecast layout! Learn more

10-Day Weather Forecast

Advertisements
Track Severe Weather on mobile